Main page
METAR-TAF:

METAR-TAF

Airports :

Waterford Airport

Waterford, Ireland

latitude: 52-11-14N, longitude: 7-05-13W, elevation: 36 m

Current weather observation

The report was made 4 hours and 44 minutes ago, at 16:30 UTC
Wind 8 kt from the North/Northwest with gusts up to 18 kt, varying between West and North/Northeast
Temperature 9°C
Humidity 40%
Pressure 1024 hPa
Visibility 10 km or more
no clouds below 1500 m and no cumulonimbus

METAR: EIWF 111630Z 33008G18KT 280V020 CAVOK 09/M04 Q1024

Time: 22:14 (21:14 UTC)

Forecast

The report was made 1 hour and 14 minutes ago, at 20:00 UTC
Forecast valid from 11 at 21 UTC to 12 at 06 UTC
Wind 3 kt from variable directions
Visibility 10 km or more
Few clouds at a height of 2500 ft
Scattered clouds at a height of 4500 ft

TAF: EIWF 112000Z 1121/1206 VRB03KT 9999 FEW025 SCT045

Weather observations and forecasts of more than 4000 airports (METAR and TAF reports).

The available stations are represented by yellow and red dots on the map.

Hover mouse over dot to see the name of the station.

Then click to see weather observations and forecasts.

To change the map : click on the green buttons with a black cross to zoom in, on the green button with a dash to zoom out, or on the green arrows for adjacent maps.


METAR-TAF: